createdAt,value
2018-04-29T00:02:10.504Z,99.90
2018-04-29T00:07:09.495Z,99.90
2018-04-29T00:12:08.499Z,99.90
2018-04-29T00:14:37.828Z,99.90
2018-04-29T00:17:07.510Z,99.90
2018-04-29T00:22:07.665Z,99.90
2018-04-29T00:24:36.597Z,99.90
2018-04-29T00:27:05.506Z,99.90
2018-04-29T00:29:35.934Z,99.90
2018-04-29T00:32:04.862Z,99.90
2018-04-29T00:34:34.534Z,99.90
2018-04-29T00:37:04.224Z,99.90
2018-04-29T00:39:33.546Z,99.90
2018-04-29T00:42:03.211Z,99.90
2018-04-29T00:44:32.152Z,99.90
2018-04-29T00:47:01.465Z,99.90
2018-04-29T00:49:30.409Z,99.90
2018-04-29T00:52:06.850Z,99.90
2018-04-29T00:59:36.266Z,99.90
2018-04-29T01:02:05.177Z,99.90
2018-04-29T01:04:34.119Z,99.90
2018-04-29T01:07:03.394Z,99.90
2018-04-29T01:12:03.146Z,99.90
2018-04-29T01:14:32.852Z,99.90
2018-04-29T01:17:02.538Z,99.90
2018-04-29T01:22:02.389Z,99.90
2018-04-29T01:24:31.708Z,99.90
2018-04-29T01:29:30.698Z,99.90
2018-04-29T01:32:00.019Z,99.90
2018-04-29T01:34:28.968Z,99.90
2018-04-29T01:36:59.433Z,99.90
2018-04-29T01:39:29.100Z,99.90
2018-04-29T01:41:58.052Z,99.90
2018-04-29T01:44:26.976Z,99.90
2018-04-29T01:49:25.970Z,99.90
2018-04-29T01:51:54.916Z,99.90
2018-04-29T01:54:25.027Z,99.90
2018-04-29T01:56:55.146Z,99.90
2018-04-29T01:59:24.043Z,99.90
2018-04-29T02:04:23.405Z,99.90
2018-04-29T02:06:53.456Z,99.90
2018-04-29T02:09:22.381Z,99.90
2018-04-29T02:11:52.071Z,99.90
2018-04-29T02:14:21.759Z,99.90
2018-04-29T02:16:50.685Z,99.90
2018-04-29T02:19:20.370Z,99.90
2018-04-29T02:21:50.067Z,99.90
2018-04-29T02:24:20.501Z,99.90
2018-04-29T02:26:49.419Z,99.90
2018-04-29T02:29:18.349Z,99.90
2018-04-29T02:31:47.687Z,99.90
2018-04-29T02:34:16.592Z,99.90
2018-04-29T02:39:16.022Z,99.90
2018-04-29T02:44:15.765Z,99.90
2018-04-29T02:46:44.679Z,99.90
2018-04-29T02:49:13.591Z,99.90
2018-04-29T02:54:12.586Z,99.90
2018-04-29T02:56:42.627Z,99.90
2018-04-29T02:59:11.573Z,99.90
2018-04-29T03:01:40.575Z,99.90
2018-04-29T03:04:09.491Z,99.90
2018-04-29T03:06:39.537Z,99.90
2018-04-29T03:11:38.517Z,99.90
2018-04-29T03:14:07.463Z,99.90
2018-04-29T03:16:36.370Z,99.90
2018-04-29T03:19:05.293Z,99.90
2018-04-29T03:21:34.226Z,99.90
2018-04-29T03:24:03.150Z,99.90
2018-04-29T03:26:33.574Z,99.90
2018-04-29T03:29:03.279Z,99.90
2018-04-29T03:31:32.198Z,99.90
2018-04-29T03:34:01.525Z,99.90
2018-04-29T03:36:31.232Z,99.90
2018-04-29T03:39:00.942Z,99.90
2018-04-29T03:41:30.337Z,99.90
2018-04-29T03:43:59.656Z,99.90
2018-04-29T03:46:30.117Z,99.90
2018-04-29T03:49:00.018Z,99.90
2018-04-29T03:51:28.935Z,99.90
2018-04-29T03:53:57.845Z,99.90
2018-04-29T03:56:26.779Z,99.90
2018-04-29T03:59:07.496Z,99.90
2018-04-29T04:01:51.283Z,99.90
2018-04-29T04:04:18.367Z,99.90
2018-04-29T04:06:47.313Z,99.90
2018-04-29T04:09:16.975Z,99.90
2018-04-29T04:11:45.903Z,99.90
2018-04-29T04:14:15.571Z,99.90
2018-04-29T04:19:14.563Z,99.90
2018-04-29T04:21:43.508Z,99.90
2018-04-29T04:24:12.408Z,99.90
2018-04-29T04:29:11.459Z,99.90
2018-04-29T04:31:40.393Z,99.90
2018-04-29T04:34:10.479Z,99.90
2018-04-29T04:36:39.377Z,99.90
2018-04-29T04:39:08.709Z,99.90
2018-04-29T04:41:38.393Z,99.90
2018-04-29T04:44:07.335Z,99.90
2018-04-29T04:46:37.393Z,99.90
2018-04-29T04:49:06.345Z,99.90
2018-04-29T04:54:05.322Z,99.90
2018-04-29T04:59:04.330Z,99.90
2018-04-29T05:01:34.013Z,99.90
2018-04-29T05:04:02.948Z,99.90
2018-04-29T05:06:31.859Z,99.90
2018-04-29T05:09:00.784Z,99.90
2018-04-29T05:11:30.501Z,99.90
2018-04-29T05:14:00.585Z,99.90
2018-04-29T05:16:29.904Z,99.90
2018-04-29T05:18:58.854Z,99.90
2018-04-29T05:23:58.632Z,99.90
2018-04-29T05:26:29.083Z,99.90
2018-04-29T05:28:58.384Z,99.90
2018-04-29T05:31:28.075Z,99.90
2018-04-29T05:33:57.755Z,99.90
2018-04-29T05:36:27.467Z,99.90
2018-04-29T05:41:26.445Z,99.90
2018-04-29T05:43:55.375Z,99.90
2018-04-29T05:46:24.813Z,99.90
2018-04-29T05:48:54.460Z,99.90
2018-04-29T05:51:24.439Z,99.90
2018-04-29T05:53:55.440Z,99.90
2018-04-29T05:56:24.758Z,99.90
2018-04-29T05:58:54.497Z,99.90
2018-04-29T06:03:54.267Z,99.90
2018-04-29T06:06:23.234Z,99.90
2018-04-29T06:08:53.926Z,99.90
2018-04-29T06:13:55.746Z,99.90
2018-04-29T06:16:26.560Z,99.90
2018-04-29T06:21:28.249Z,99.90
2018-04-29T06:23:58.216Z,99.90
2018-04-29T06:26:27.965Z,99.90
2018-04-29T06:28:58.934Z,99.90
2018-04-29T06:31:28.683Z,99.90
2018-04-29T06:36:28.655Z,99.90
2018-04-29T06:38:58.753Z,99.90
2018-04-29T06:41:28.545Z,99.90
2018-04-29T06:43:58.266Z,99.90
2018-04-29T06:46:28.078Z,99.90
2018-04-29T06:48:57.744Z,99.90
2018-04-29T06:51:28.738Z,99.90
2018-04-29T06:53:58.413Z,99.90
2018-04-29T06:56:27.373Z,99.90
2018-04-29T06:58:57.445Z,99.90
2018-04-29T07:01:26.360Z,99.90
2018-04-29T07:06:25.334Z,99.90
2018-04-29T07:08:54.281Z,99.90
2018-04-29T07:11:25.913Z,99.90
2018-04-29T07:16:26.307Z,99.90
2018-04-29T07:18:55.230Z,99.90
2018-04-29T07:21:27.576Z,99.90
2018-04-29T07:23:57.272Z,99.90
2018-04-29T07:26:26.682Z,99.90
2018-04-29T07:31:26.448Z,99.90
2018-04-29T07:33:55.993Z,99.90
2018-04-29T07:36:24.907Z,99.90
2018-04-29T07:38:53.813Z,99.90
2018-04-29T07:41:25.237Z,99.90
2018-04-29T07:43:54.155Z,99.90
2018-04-29T07:46:24.598Z,99.90
2018-04-29T07:48:54.843Z,99.90
2018-04-29T07:51:23.777Z,99.90
2018-04-29T07:53:52.716Z,99.90
2018-04-29T07:56:22.560Z,99.90
2018-04-29T07:58:51.491Z,99.90
2018-04-29T08:01:20.893Z,99.90
2018-04-29T08:03:51.310Z,99.90
2018-04-29T08:08:52.027Z,99.90
2018-04-29T08:11:22.776Z,99.90
2018-04-29T08:13:51.701Z,99.90
2018-04-29T08:16:20.599Z,99.90
2018-04-29T08:18:49.580Z,99.90
2018-04-29T08:21:18.875Z,99.90
2018-04-29T08:28:48.309Z,99.90
2018-04-29T08:31:17.637Z,99.90
2018-04-29T08:33:46.559Z,99.90
2018-04-29T08:36:15.513Z,99.90
2018-04-29T08:38:44.409Z,99.90
2018-04-29T08:41:13.325Z,99.90
2018-04-29T08:43:42.249Z,99.90
2018-04-29T08:46:11.557Z,99.90
2018-04-29T08:48:41.295Z,99.90
2018-04-29T08:51:11.679Z,99.90
2018-04-29T08:53:41.361Z,99.90
2018-04-29T08:58:41.128Z,99.90
2018-04-29T09:01:10.122Z,99.90
2018-04-29T09:03:39.469Z,99.90
2018-04-29T09:06:10.262Z,99.90
2018-04-29T09:08:39.956Z,99.90
2018-04-29T09:11:08.892Z,99.90
2018-04-29T09:13:39.339Z,99.90
2018-04-29T09:18:39.824Z,99.90
2018-04-29T09:21:08.729Z,99.90
2018-04-29T09:23:39.169Z,99.90
2018-04-29T09:28:38.933Z,99.90
2018-04-29T09:31:07.875Z,99.90
2018-04-29T09:33:36.785Z,99.90
2018-04-29T09:36:05.713Z,99.90
2018-04-29T09:38:36.114Z,99.90
2018-04-29T09:41:05.039Z,99.90
2018-04-29T09:46:04.996Z,99.90
2018-04-29T09:48:34.665Z,99.90
2018-04-29T09:51:03.555Z,99.90
2018-04-29T09:56:02.950Z,99.90
2018-04-29T10:01:02.055Z,99.90
2018-04-29T10:03:31.666Z,99.90
2018-04-29T10:06:00.576Z,99.90
2018-04-29T10:08:29.480Z,99.90
2018-04-29T10:15:59.883Z,99.90
2018-04-29T10:18:28.824Z,99.90
2018-04-29T10:20:58.534Z,99.90
2018-04-29T10:23:27.458Z,99.90
2018-04-29T10:25:58.330Z,99.90
2018-04-29T10:28:28.394Z,99.90
2018-04-29T10:30:58.460Z,99.90
2018-04-29T10:33:27.411Z,99.90
2018-04-29T10:35:57.473Z,99.90
2018-04-29T10:38:26.414Z,99.90
2018-04-29T10:40:55.319Z,99.90
2018-04-29T10:48:24.591Z,99.90
2018-04-29T10:50:55.055Z,99.90
2018-04-29T10:58:24.202Z,99.90
2018-04-29T11:00:53.894Z,99.90
2018-04-29T11:05:54.843Z,99.90
2018-04-29T11:10:53.869Z,99.90
2018-04-29T11:13:22.798Z,99.90
2018-04-29T11:15:53.232Z,99.90
2018-04-29T11:18:22.189Z,99.90
2018-04-29T11:23:22.755Z,99.90
2018-04-29T11:25:52.461Z,99.90
2018-04-29T11:28:21.474Z,99.90
2018-04-29T11:30:50.378Z,99.90
2018-04-29T11:33:19.308Z,99.90
2018-04-29T11:35:49.407Z,99.90
2018-04-29T11:38:18.323Z,99.90
2018-04-29T11:40:47.229Z,99.90
2018-04-29T11:43:16.187Z,99.90
2018-04-29T11:45:45.112Z,99.90
2018-04-29T11:48:15.186Z,99.90
2018-04-29T11:50:44.886Z,99.90
2018-04-29T11:53:15.651Z,99.90
2018-04-29T11:55:45.313Z,99.90
2018-04-29T11:58:15.031Z,99.90
2018-04-29T12:00:44.048Z,99.90
2018-04-29T12:03:13.566Z,99.90
2018-04-29T12:05:44.840Z,99.90
2018-04-29T12:08:13.832Z,99.90
2018-04-29T12:10:43.235Z,99.90
2018-04-29T12:13:12.598Z,99.90
2018-04-29T12:15:44.095Z,99.90
2018-04-29T12:18:14.100Z,99.90
2018-04-29T12:20:43.052Z,99.90
2018-04-29T12:23:12.777Z,99.90
2018-04-29T12:25:41.972Z,99.90
2018-04-29T12:28:11.967Z,99.90
2018-04-29T12:30:40.870Z,99.90
2018-04-29T12:33:10.548Z,99.90
2018-04-29T12:35:40.241Z,99.90
2018-04-29T12:38:09.153Z,99.90
2018-04-29T12:40:38.076Z,99.90
2018-04-29T12:43:06.988Z,99.90
2018-04-29T12:45:35.989Z,99.90
2018-04-29T12:48:04.926Z,99.90
2018-04-29T12:50:34.236Z,99.90
2018-04-29T12:53:03.194Z,99.90
2018-04-29T12:55:32.122Z,99.90
2018-04-29T12:58:01.569Z,99.90
2018-04-29T13:00:31.234Z,99.90
2018-04-29T13:03:01.170Z,99.90
2018-04-29T13:05:30.119Z,99.90
2018-04-29T13:07:59.809Z,99.90
2018-04-29T13:12:59.181Z,99.90
2018-04-29T13:15:28.116Z,99.90
2018-04-29T13:17:57.029Z,99.90
2018-04-29T13:20:26.704Z,99.90
2018-04-29T13:22:55.637Z,99.90
2018-04-29T13:25:27.233Z,99.90
2018-04-29T13:27:56.903Z,99.90
2018-04-29T13:30:26.737Z,99.90
2018-04-29T13:32:55.669Z,99.90
2018-04-29T13:35:24.692Z,99.90
2018-04-29T13:37:53.621Z,99.90
2018-04-29T13:40:22.548Z,99.90
2018-04-29T13:42:52.268Z,99.90
2018-04-29T13:45:21.221Z,99.90
2018-04-29T13:47:50.535Z,99.90
2018-04-29T13:50:20.259Z,99.90
2018-04-29T13:52:49.579Z,99.90
2018-04-29T13:55:19.275Z,99.90
2018-04-29T13:57:48.589Z,99.90
2018-04-29T14:00:17.509Z,99.90
2018-04-29T14:05:16.894Z,99.90
2018-04-29T14:07:46.220Z,99.90
2018-04-29T14:10:15.954Z,97.40
2018-04-29T14:12:45.613Z,91.00
2018-04-29T14:15:14.937Z,83.40
2018-04-29T14:17:43.845Z,87.20
2018-04-29T14:20:13.191Z,90.70
2018-04-29T14:22:42.857Z,95.20
2018-04-29T14:25:11.787Z,99.90
2018-04-29T14:27:41.495Z,99.90
2018-04-29T14:30:10.389Z,99.90
2018-04-29T14:32:40.101Z,99.90
2018-04-29T14:35:09.795Z,99.90
2018-04-29T14:37:39.489Z,99.90
2018-04-29T14:40:09.190Z,99.80
2018-04-29T14:42:38.102Z,98.00
2018-04-29T14:45:07.802Z,97.00
2018-04-29T14:47:36.720Z,99.90
2018-04-29T14:50:05.677Z,99.90
2018-04-29T14:52:35.118Z,99.90
2018-04-29T14:55:04.917Z,99.90
2018-04-29T15:00:04.647Z,99.90
2018-04-29T15:02:33.622Z,99.90
2018-04-29T15:05:03.223Z,99.90
2018-04-29T15:07:33.328Z,99.90
2018-04-29T15:10:03.565Z,99.90
2018-04-29T15:15:02.646Z,99.90
2018-04-29T15:17:31.563Z,99.90
2018-04-29T15:20:01.339Z,99.90
2018-04-29T15:22:30.824Z,99.90
2018-04-29T15:25:00.519Z,99.90
2018-04-29T15:27:31.039Z,99.90
2018-04-29T15:30:00.012Z,99.90
2018-04-29T15:32:29.735Z,99.90
2018-04-29T15:34:59.414Z,99.90
2018-04-29T15:37:28.431Z,99.90
2018-04-29T15:39:58.503Z,99.90
2018-04-29T15:42:27.451Z,99.90
2018-04-29T15:44:57.035Z,99.90
2018-04-29T15:47:26.752Z,99.90
2018-04-29T15:49:56.948Z,99.90
2018-04-29T15:52:26.682Z,99.90
2018-04-29T15:54:57.237Z,99.90
2018-04-29T15:57:28.657Z,99.90
2018-04-29T15:59:59.277Z,99.90
2018-04-29T16:02:28.185Z,99.90
2018-04-29T16:04:57.525Z,99.90
2018-04-29T16:07:27.628Z,99.90
2018-04-29T16:09:56.548Z,99.90
2018-04-29T16:12:25.526Z,99.90
2018-04-29T16:14:54.472Z,99.90
2018-04-29T16:17:24.266Z,99.90
2018-04-29T16:19:54.021Z,99.90
2018-04-29T16:22:22.934Z,99.90
2018-04-29T16:24:53.112Z,99.90
2018-04-29T16:27:23.573Z,99.90
2018-04-29T16:32:24.078Z,99.90
2018-04-29T16:34:53.032Z,99.90
2018-04-29T16:37:23.099Z,99.90
2018-04-29T16:39:52.064Z,99.90
2018-04-29T16:44:51.208Z,99.90
2018-04-29T16:47:20.127Z,99.90
2018-04-29T16:49:49.782Z,99.90
2018-04-29T16:52:19.506Z,99.90
2018-04-29T16:54:49.252Z,99.90
2018-04-29T16:57:18.181Z,99.90
2018-04-29T16:59:47.181Z,99.90
2018-04-29T17:02:17.662Z,99.90
2018-04-29T17:07:18.664Z,99.90
2018-04-29T17:09:47.653Z,99.90
2018-04-29T17:12:17.850Z,99.90
2018-04-29T17:14:47.583Z,99.90
2018-04-29T17:19:48.228Z,99.90
2018-04-29T17:22:18.739Z,99.90
2018-04-29T17:24:48.437Z,99.90
2018-04-29T17:27:17.391Z,99.90
2018-04-29T17:29:46.350Z,99.90
2018-04-29T17:32:17.580Z,99.90
2018-04-29T17:34:47.289Z,99.90
2018-04-29T17:37:17.799Z,99.90
2018-04-29T17:42:17.191Z,99.90
2018-04-29T17:44:46.179Z,99.90
2018-04-29T17:47:15.109Z,99.90
2018-04-29T17:49:44.048Z,99.90
2018-04-29T17:52:13.017Z,99.90
2018-04-29T17:54:41.949Z,99.90
2018-04-29T17:57:10.928Z,99.90
2018-04-29T17:59:39.889Z,99.90
2018-04-29T18:02:09.218Z,99.90
2018-04-29T18:07:08.322Z,99.90
2018-04-29T18:09:37.341Z,99.90
2018-04-29T18:12:08.339Z,99.90
2018-04-29T18:14:37.545Z,99.90
2018-04-29T18:19:36.609Z,99.90
2018-04-29T18:22:06.349Z,99.90
2018-04-29T18:24:36.051Z,99.90
2018-04-29T18:27:05.789Z,99.90
2018-04-29T18:29:34.729Z,99.90
2018-04-29T18:32:03.697Z,99.90
2018-04-29T18:34:33.791Z,99.90
2018-04-29T18:37:02.771Z,99.90
2018-04-29T18:39:33.041Z,99.90
2018-04-29T18:42:03.532Z,99.90
2018-04-29T18:44:32.525Z,99.90
2018-04-29T18:47:01.468Z,99.90
2018-04-29T18:49:31.626Z,99.90
2018-04-29T18:52:00.609Z,99.90
2018-04-29T18:54:29.572Z,99.90
2018-04-29T18:56:59.317Z,99.90
2018-04-29T18:59:29.119Z,99.90
2018-04-29T19:04:29.326Z,99.90
2018-04-29T19:07:00.389Z,99.90
2018-04-29T19:09:30.125Z,99.90
2018-04-29T19:11:59.887Z,99.90
2018-04-29T19:14:29.629Z,99.90
2018-04-29T19:16:58.589Z,99.90
2018-04-29T19:19:29.015Z,99.90
2018-04-29T19:21:59.059Z,99.90
2018-04-29T19:24:28.757Z,99.90
2018-04-29T19:26:59.254Z,99.90
2018-04-29T19:29:28.198Z,99.90
2018-04-29T19:31:57.586Z,99.90
2018-04-29T19:34:28.188Z,99.90
2018-04-29T19:36:58.120Z,99.90
2018-04-29T19:39:30.889Z,99.90
2018-04-29T19:42:00.706Z,99.90
2018-04-29T19:44:30.932Z,99.90
2018-04-29T19:47:00.673Z,99.90
2018-04-29T19:49:29.625Z,99.90
2018-04-29T19:51:58.890Z,99.90
2018-04-29T19:54:28.857Z,99.90
2018-04-29T19:56:58.290Z,99.90
2018-04-29T20:01:57.384Z,99.90
2018-04-29T20:04:28.755Z,99.90
2018-04-29T20:06:57.713Z,99.90
2018-04-29T20:09:26.703Z,99.90
2018-04-29T20:11:55.670Z,99.90
2018-04-29T20:14:25.425Z,99.90
2018-04-29T20:16:54.389Z,99.90
2018-04-29T20:19:23.362Z,99.90
2018-04-29T20:21:54.087Z,99.90
2018-04-29T20:26:54.583Z,99.90
2018-04-29T20:29:23.543Z,99.90
2018-04-29T20:31:52.524Z,99.90
2018-04-29T20:34:21.877Z,99.90
2018-04-29T20:36:51.587Z,99.90
2018-04-29T20:41:50.629Z,99.90
2018-04-29T20:44:20.439Z,99.90
2018-04-29T20:46:49.339Z,99.90
2018-04-29T20:49:19.060Z,99.90
2018-04-29T20:51:48.399Z,99.90
2018-04-29T20:54:17.742Z,99.90
2018-04-29T20:56:47.460Z,99.90
2018-04-29T20:59:17.185Z,99.90
2018-04-29T21:04:16.337Z,99.90
2018-04-29T21:06:45.703Z,99.90
2018-04-29T21:09:14.667Z,99.90
2018-04-29T21:11:43.631Z,99.90
2018-04-29T21:14:13.378Z,99.90
2018-04-29T21:16:43.061Z,99.90
2018-04-29T21:19:13.523Z,99.90
2018-04-29T21:21:43.217Z,99.90
2018-04-29T21:24:12.553Z,99.90
2018-04-29T21:26:42.255Z,99.90
2018-04-29T21:29:12.354Z,99.90
2018-04-29T21:31:42.421Z,99.90
2018-04-29T21:34:11.793Z,99.90
2018-04-29T21:36:41.116Z,99.90
2018-04-29T21:39:10.065Z,99.90
2018-04-29T21:44:09.071Z,99.90
2018-04-29T21:46:38.775Z,99.90
2018-04-29T21:49:08.499Z,99.90
2018-04-29T21:51:38.209Z,99.90
2018-04-29T21:54:07.127Z,99.90
2018-04-29T21:56:36.459Z,99.90
2018-04-29T21:59:06.165Z,99.90
2018-04-29T22:01:35.101Z,99.90
2018-04-29T22:04:04.033Z,99.90
2018-04-29T22:06:32.943Z,99.90
2018-04-29T22:09:01.891Z,99.90
2018-04-29T22:11:30.811Z,99.90
2018-04-29T22:14:00.519Z,99.90
2018-04-29T22:16:30.951Z,99.90
2018-04-29T22:19:00.668Z,99.90
2018-04-29T22:21:29.618Z,99.90
2018-04-29T22:23:58.557Z,99.90
2018-04-29T22:26:29.314Z,99.90
2018-04-29T22:28:59.363Z,99.90
2018-04-29T22:31:28.327Z,99.90
2018-04-29T22:33:57.301Z,99.90
2018-04-29T22:36:26.665Z,99.90
2018-04-29T22:38:56.355Z,99.90
2018-04-29T22:41:26.933Z,99.90
2018-04-29T22:43:56.659Z,99.90
2018-04-29T22:46:27.397Z,99.90
2018-04-29T22:48:56.379Z,99.90
2018-04-29T22:51:25.713Z,99.90
2018-04-29T22:53:54.645Z,99.90
2018-04-29T22:58:53.642Z,99.90
2018-04-29T23:01:22.578Z,99.90
2018-04-29T23:03:51.537Z,99.90
2018-04-29T23:06:20.449Z,99.90
2018-04-29T23:08:50.521Z,99.90
2018-04-29T23:11:19.449Z,99.90
2018-04-29T23:13:49.525Z,99.90
2018-04-29T23:16:19.225Z,99.90
2018-04-29T23:18:48.787Z,99.90
2018-04-29T23:21:18.460Z,99.90
2018-04-29T23:26:18.597Z,99.90
2018-04-29T23:28:48.306Z,99.90
2018-04-29T23:31:17.223Z,99.90
2018-04-29T23:33:47.282Z,99.90
2018-04-29T23:38:47.262Z,99.90
2018-04-29T23:41:16.595Z,99.90
2018-04-29T23:43:45.517Z,99.90
2018-04-29T23:48:46.025Z,99.90
2018-04-29T23:51:15.733Z,99.90
2018-04-29T23:53:45.427Z,99.90
2018-04-29T23:56:15.135Z,99.90
2018-04-29T23:58:45.547Z,99.90
